sensor_id;sensor_type;location;lat;lon;timestamp;pressure;altitude;pressure_sealevel;temperature;humidity
16030;BME280;34770;49.272;11.070;2023-01-29T00:01:08;98872.78;;;-2.51;90.50
16030;BME280;34770;49.272;11.070;2023-01-29T00:03:35;98886.13;;;-2.37;90.00
16030;BME280;34770;49.272;11.070;2023-01-29T00:06:04;98870.81;;;-2.38;90.68
16030;BME280;34770;49.272;11.070;2023-01-29T00:08:35;98889.22;;;-2.46;88.81
16030;BME280;34770;49.272;11.070;2023-01-29T00:11:05;98881.84;;;-2.45;91.23
16030;BME280;34770;49.272;11.070;2023-01-29T00:13:32;98883.09;;;-2.53;91.52
16030;BME280;34770;49.272;11.070;2023-01-29T00:15:59;98883.78;;;-2.46;92.38
16030;BME280;34770;49.272;11.070;2023-01-29T00:18:25;98884.38;;;-2.44;93.08
16030;BME280;34770;49.272;11.070;2023-01-29T00:20:51;98855.13;;;-2.60;92.39
16030;BME280;34770;49.272;11.070;2023-01-29T00:23:17;98879.41;;;-2.59;92.45
16030;BME280;34770;49.272;11.070;2023-01-29T00:25:42;98878.31;;;-2.46;90.76
16030;BME280;34770;49.272;11.070;2023-01-29T00:28:08;98873.94;;;-2.47;90.03
16030;BME280;34770;49.272;11.070;2023-01-29T00:30:35;98871.78;;;-2.45;90.68
16030;BME280;34770;49.272;11.070;2023-01-29T00:33:01;98848.72;;;-2.54;90.03
16030;BME280;34770;49.272;11.070;2023-01-29T00:35:27;98867.50;;;-2.41;90.90
16030;BME280;34770;49.272;11.070;2023-01-29T00:37:56;98863.03;;;-2.47;91.36
16030;BME280;34770;49.272;11.070;2023-01-29T00:40:22;98874.94;;;-2.36;92.06
16030;BME280;34770;49.272;11.070;2023-01-29T00:42:48;98873.50;;;-2.55;90.90
16030;BME280;34770;49.272;11.070;2023-01-29T00:45:33;98871.84;;;-2.57;90.55
16030;BME280;34770;49.272;11.070;2023-01-29T00:47:58;98875.00;;;-2.48;90.27
16030;BME280;34770;49.272;11.070;2023-01-29T00:50:24;98854.41;;;-2.55;90.26
16030;BME280;34770;49.272;11.070;2023-01-29T00:52:50;98847.59;;;-2.70;90.59
16030;BME280;34770;49.272;11.070;2023-01-29T00:55:17;98850.06;;;-2.68;91.55
16030;BME280;34770;49.272;11.070;2023-01-29T00:57:42;98862.81;;;-2.57;92.31
16030;BME280;34770;49.272;11.070;2023-01-29T01:00:12;98831.84;;;-2.68;92.21
16030;BME280;34770;49.272;11.070;2023-01-29T01:02:37;98843.16;;;-2.59;92.32
16030;BME280;34770;49.272;11.070;2023-01-29T01:05:21;98852.75;;;-2.57;92.44
16030;BME280;34770;49.272;11.070;2023-01-29T01:07:51;98867.25;;;-2.68;91.48
16030;BME280;34770;49.272;11.070;2023-01-29T01:10:20;98839.31;;;-2.75;93.12
16030;BME280;34770;49.272;11.070;2023-01-29T01:12:58;98859.53;;;-2.59;92.35
16030;BME280;34770;49.272;11.070;2023-01-29T01:15:28;98851.91;;;-2.57;91.88
16030;BME280;34770;49.272;11.070;2023-01-29T01:17:56;98854.41;;;-2.55;91.24
16030;BME280;34770;49.272;11.070;2023-01-29T01:20:23;98856.88;;;-2.54;91.70
16030;BME280;34770;49.272;11.070;2023-01-29T01:22:49;98849.94;;;-2.62;90.95
16030;BME280;34770;49.272;11.070;2023-01-29T01:25:15;98853.00;;;-2.58;91.69
16030;BME280;34770;49.272;11.070;2023-01-29T01:27:41;98828.94;;;-2.61;91.39
16030;BME280;34770;49.272;11.070;2023-01-29T01:30:12;98844.19;;;-2.48;91.55
16030;BME280;34770;49.272;11.070;2023-01-29T01:32:38;98836.88;;;-2.60;91.97
16030;BME280;34770;49.272;11.070;2023-01-29T01:35:04;98840.06;;;-2.51;92.78
16030;BME280;34770;49.272;11.070;2023-01-29T01:37:30;98857.75;;;-2.36;92.89
16030;BME280;34770;49.272;11.070;2023-01-29T01:39:55;98833.91;;;-2.58;90.61
16030;BME280;34770;49.272;11.070;2023-01-29T01:42:27;98829.72;;;-2.78;92.45
16030;BME280;34770;49.272;11.070;2023-01-29T01:45:03;98846.56;;;-2.52;92.45
16030;BME280;34770;49.272;11.070;2023-01-29T01:50:17;98853.09;;;-2.53;92.77
16030;BME280;34770;49.272;11.070;2023-01-29T01:52:49;98841.69;;;-2.50;92.82
16030;BME280;34770;49.272;11.070;2023-01-29T01:55:18;98840.06;;;-2.51;93.17
16030;BME280;34770;49.272;11.070;2023-01-29T01:57:47;98830.09;;;-2.57;91.58
16030;BME280;34770;49.272;11.070;2023-01-29T02:00:17;98849.94;;;-2.62;91.53
16030;BME280;34770;49.272;11.070;2023-01-29T02:02:45;98852.06;;;-2.64;90.59
16030;BME280;34770;49.272;11.070;2023-01-29T02:05:31;98838.47;;;-2.76;93.57
16030;BME280;34770;49.272;11.070;2023-01-29T02:08:19;98847.94;;;-2.66;93.79
16030;BME280;34770;49.272;11.070;2023-01-29T02:11:07;98844.22;;;-2.60;93.65
16030;BME280;34770;49.272;11.070;2023-01-29T02:13:33;98829.66;;;-2.66;93.05
16030;BME280;34770;49.272;11.070;2023-01-29T02:15:58;98863.84;;;-2.46;93.29
16030;BME280;34770;49.272;11.070;2023-01-29T02:18:24;98856.38;;;-2.68;91.20
16030;BME280;34770;49.272;11.070;2023-01-29T02:27:23;98848.66;;;-2.71;90.95
16030;BME280;34770;49.272;11.070;2023-01-29T02:29:27;98855.44;;;-2.85;91.59
16030;BME280;34770;49.272;11.070;2023-01-29T02:32:11;98857.94;;;-2.84;92.97
16030;BME280;34770;49.272;11.070;2023-01-29T02:38:19;98863.09;;;-2.70;92.48
16030;BME280;34770;49.272;11.070;2023-01-29T02:40:51;98861.22;;;-2.70;91.20
16030;BME280;34770;49.272;11.070;2023-01-29T02:46:03;98860.72;;;-2.67;92.01
16030;BME280;34770;49.272;11.070;2023-01-29T02:51:38;98837.03;;;-2.66;90.74
16030;BME280;34770;49.272;11.070;2023-01-29T02:54:16;98829.75;;;-2.61;92.13
16030;BME280;34770;49.272;11.070;2023-01-29T02:56:51;98824.94;;;-2.70;89.04
16030;BME280;34770;49.272;11.070;2023-01-29T02:59:41;98842.59;;;-2.73;90.72
16030;BME280;34770;49.272;11.070;2023-01-29T03:02:12;98843.47;;;-2.73;90.59
16030;BME280;34770;49.272;11.070;2023-01-29T03:04:48;98816.88;;;-2.94;90.93
16030;BME280;34770;49.272;11.070;2023-01-29T03:07:21;98842.91;;;-2.86;90.53
16030;BME280;34770;49.272;11.070;2023-01-29T03:10:25;98842.19;;;-2.82;92.13
16030;BME280;34770;49.272;11.070;2023-01-29T03:12:56;98840.25;;;-2.81;92.89
16030;BME280;34770;49.272;11.070;2023-01-29T03:15:28;98850.69;;;-2.78;92.52
16030;BME280;34770;49.272;11.070;2023-01-29T03:17:59;98847.94;;;-2.66;91.47
16030;BME280;34770;49.272;11.070;2023-01-29T03:20:31;98833.25;;;-2.65;91.46
16030;BME280;34770;49.272;11.070;2023-01-29T03:23:09;98862.47;;;-2.61;90.73
16030;BME280;34770;49.272;11.070;2023-01-29T03:25:37;98862.75;;;-2.74;90.54
16030;BME280;34770;49.272;11.070;2023-01-29T03:28:22;98852.47;;;-2.84;91.82
16030;BME280;34770;49.272;11.070;2023-01-29T03:31:09;98866.97;;;-2.95;89.92
16030;BME280;34770;49.272;11.070;2023-01-29T03:36:38;98860.72;;;-2.96;91.92
16030;BME280;34770;49.272;11.070;2023-01-29T03:39:11;98864.34;;;-2.90;92.38
16030;BME280;34770;49.272;11.070;2023-01-29T03:42:36;98876.44;;;-2.86;91.58
16030;BME280;34770;49.272;11.070;2023-01-29T03:44:57;98862.56;;;-2.84;91.14
16030;BME280;34770;49.272;11.070;2023-01-29T03:50:15;98843.31;;;-3.07;89.98
16030;BME280;34770;49.272;11.070;2023-01-29T03:53:14;98873.59;;;-2.91;90.23
16030;BME280;34770;49.272;11.070;2023-01-29T03:55:52;98856.94;;;-3.07;90.00
16030;BME280;34770;49.272;11.070;2023-01-29T04:01:18;98866.97;;;-2.95;90.93
16030;BME280;34770;49.272;11.070;2023-01-29T04:03:51;98874.28;;;-2.84;90.84
16030;BME280;34770;49.272;11.070;2023-01-29T04:06:22;98866.50;;;-2.92;90.84
16030;BME280;34770;49.272;11.070;2023-01-29T04:08:57;98870.28;;;-2.93;92.17
16030;BME280;34770;49.272;11.070;2023-01-29T04:11:26;98865.41;;;-2.91;91.90
16030;BME280;34770;49.272;11.070;2023-01-29T04:13:53;98864.16;;;-3.00;91.07
16030;BME280;34770;49.272;11.070;2023-01-29T04:16:26;98872.88;;;-2.98;88.63
16030;BME280;34770;49.272;11.070;2023-01-29T04:18:52;98868.75;;;-3.01;90.02
16030;BME280;34770;49.272;11.070;2023-01-29T04:21:19;98886.16;;;-2.90;90.49
16030;BME280;34770;49.272;11.070;2023-01-29T04:23:44;98871.03;;;-3.10;90.52
16030;BME280;34770;49.272;11.070;2023-01-29T04:37:03;98887.59;;;-2.99;88.17
16030;BME280;34770;49.272;11.070;2023-01-29T04:39:43;98882.94;;;-2.87;89.43
16030;BME280;34770;49.272;11.070;2023-01-29T04:47:22;98863.72;;;-2.80;88.07
16030;BME280;34770;49.272;11.070;2023-01-29T04:52:47;98853.59;;;-2.97;88.95
16030;BME280;34770;49.272;11.070;2023-01-29T04:58:03;98836.53;;;-2.92;88.87
16030;BME280;34770;49.272;11.070;2023-01-29T05:00:37;98855.19;;;-2.84;88.77
16030;BME280;34770;49.272;11.070;2023-01-29T05:03:04;98845.81;;;-3.17;88.59
16030;BME280;34770;49.272;11.070;2023-01-29T05:05:30;98854.25;;;-3.30;88.36
16030;BME280;34770;49.272;11.070;2023-01-29T05:07:56;98878.72;;;-3.07;88.43
16030;BME280;34770;49.272;11.070;2023-01-29T05:10:23;98879.44;;;-2.99;89.65
16030;BME280;34770;49.272;11.070;2023-01-29T05:12:58;98879.44;;;-3.11;89.43
16030;BME280;34770;49.272;11.070;2023-01-29T05:15:37;98872.81;;;-3.15;90.36
16030;BME280;34770;49.272;11.070;2023-01-29T05:18:04;98876.72;;;-3.23;90.19
16030;BME280;34770;49.272;11.070;2023-01-29T05:20:37;98856.94;;;-3.18;90.39
16030;BME280;34770;49.272;11.070;2023-01-29T05:23:08;98874.47;;;-3.14;90.72
16030;BME280;34770;49.272;11.070;2023-01-29T05:25:34;98849.13;;;-3.15;91.33
16030;BME280;34770;49.272;11.070;2023-01-29T05:28:00;98859.75;;;-3.01;91.16
16030;BME280;34770;49.272;11.070;2023-01-29T05:30:37;98865.31;;;-2.96;89.94
16030;BME280;34770;49.272;11.070;2023-01-29T05:33:04;98869.25;;;-3.04;90.71
16030;BME280;34770;49.272;11.070;2023-01-29T05:35:30;98854.69;;;-3.33;88.99
16030;BME280;34770;49.272;11.070;2023-01-29T05:37:56;98855.78;;;-3.34;89.83
16030;BME280;34770;49.272;11.070;2023-01-29T05:40:22;98854.50;;;-3.56;90.86
16030;BME280;34770;49.272;11.070;2023-01-29T05:42:48;98826.91;;;-3.47;90.52
16030;BME280;34770;49.272;11.070;2023-01-29T05:45:15;98822.28;;;-3.47;91.11
16030;BME280;34770;49.272;11.070;2023-01-29T05:47:41;98853.44;;;-3.43;90.79
16030;BME280;34770;49.272;11.070;2023-01-29T05:50:07;98833.88;;;-3.40;90.53
16030;BME280;34770;49.272;11.070;2023-01-29T05:52:32;98826.03;;;-3.24;91.13
16030;BME280;34770;49.272;11.070;2023-01-29T05:54:58;98827.72;;;-3.23;91.01
16030;BME280;34770;49.272;11.070;2023-01-29T05:57:23;98815.16;;;-3.36;90.67
16030;BME280;34770;49.272;11.070;2023-01-29T05:59:49;98811.13;;;-3.33;90.44
16030;BME280;34770;49.272;11.070;2023-01-29T06:02:14;98798.13;;;-3.31;89.81
16030;BME280;34770;49.272;11.070;2023-01-29T06:04:40;98792.13;;;-3.45;88.86
16030;BME280;34770;49.272;11.070;2023-01-29T06:07:05;98808.91;;;-3.37;89.46
16030;BME280;34770;49.272;11.070;2023-01-29T06:09:31;98813.56;;;-3.49;89.88
16030;BME280;34770;49.272;11.070;2023-01-29T06:11:56;98794.00;;;-3.58;89.95
16030;BME280;34770;49.272;11.070;2023-01-29T06:14:21;98804.88;;;-3.46;90.22
16030;BME280;34770;49.272;11.070;2023-01-29T06:16:47;98808.56;;;-3.52;90.74
16030;BME280;34770;49.272;11.070;2023-01-29T06:19:15;98820.06;;;-3.62;91.86
16030;BME280;34770;49.272;11.070;2023-01-29T06:21:42;98809.53;;;-3.58;91.69
16030;BME280;34770;49.272;11.070;2023-01-29T06:24:08;98810.22;;;-3.75;92.80
16030;BME280;34770;49.272;11.070;2023-01-29T06:26:33;98817.34;;;-3.50;91.70
16030;BME280;34770;49.272;11.070;2023-01-29T06:29:03;98831.28;;;-3.58;91.76
16030;BME280;34770;49.272;11.070;2023-01-29T06:31:28;98825.34;;;-3.43;91.98
16030;BME280;34770;49.272;11.070;2023-01-29T06:33:54;98827.97;;;-3.37;91.52
16030;BME280;34770;49.272;11.070;2023-01-29T06:36:19;98825.84;;;-3.34;90.69
16030;BME280;34770;49.272;11.070;2023-01-29T06:38:45;98842.28;;;-3.41;90.30
16030;BME280;34770;49.272;11.070;2023-01-29T06:41:13;98836.13;;;-3.25;90.85
16030;BME280;34770;49.272;11.070;2023-01-29T06:43:43;98835.78;;;-3.28;89.24
16030;BME280;34770;49.272;11.070;2023-01-29T06:46:08;98840.28;;;-3.34;90.95
16030;BME280;34770;49.272;11.070;2023-01-29T06:48:34;98837.56;;;-3.34;90.52
16030;BME280;34770;49.272;11.070;2023-01-29T06:51:05;98839.69;;;-3.36;89.78
16030;BME280;34770;49.272;11.070;2023-01-29T06:53:32;98833.06;;;-3.64;91.73
16030;BME280;34770;49.272;11.070;2023-01-29T06:55:58;98837.69;;;-3.53;91.29
16030;BME280;34770;49.272;11.070;2023-01-29T06:58:23;98837.00;;;-3.48;91.33
16030;BME280;34770;49.272;11.070;2023-01-29T07:00:49;98853.28;;;-3.36;90.30
16030;BME280;34770;49.272;11.070;2023-01-29T07:03:15;98842.28;;;-3.41;90.14
16030;BME280;34770;49.272;11.070;2023-01-29T07:05:40;98854.13;;;-3.35;88.99
16030;BME280;34770;49.272;11.070;2023-01-29T07:08:06;98865.84;;;-3.47;90.78
16030;BME280;34770;49.272;11.070;2023-01-29T07:10:34;98861.09;;;-3.40;89.85
16030;BME280;34770;49.272;11.070;2023-01-29T07:13:00;98878.41;;;-3.46;89.84
16030;BME280;34770;49.272;11.070;2023-01-29T07:15:26;98873.75;;;-3.33;90.10
16030;BME280;34770;49.272;11.070;2023-01-29T07:17:59;98881.09;;;-3.58;90.84
16030;BME280;34770;49.272;11.070;2023-01-29T07:20:26;98870.72;;;-3.61;91.13
16030;BME280;34770;49.272;11.070;2023-01-29T07:22:52;98877.56;;;-3.58;91.58
16030;BME280;34770;49.272;11.070;2023-01-29T07:25:19;98864.66;;;-3.63;90.31
16030;BME280;34770;49.272;11.070;2023-01-29T07:27:44;98873.53;;;-3.44;90.37
16030;BME280;34770;49.272;11.070;2023-01-29T07:30:10;98874.25;;;-3.60;90.41
16030;BME280;34770;49.272;11.070;2023-01-29T07:35:01;98870.81;;;-3.56;90.39
16030;BME280;34770;49.272;11.070;2023-01-29T07:37:27;98879.59;;;-3.54;89.55
16030;BME280;34770;49.272;11.070;2023-01-29T07:39:52;98868.94;;;-3.55;89.39
16030;BME280;34770;49.272;11.070;2023-01-29T07:42:18;98870.81;;;-3.56;88.65
16030;BME280;34770;49.272;11.070;2023-01-29T07:44:43;98881.22;;;-3.64;88.83
16030;BME280;34770;49.272;11.070;2023-01-29T07:47:09;98878.97;;;-3.56;88.79
16030;BME280;34770;49.272;11.070;2023-01-29T07:49:34;98854.63;;;-3.74;87.99
16030;BME280;34770;49.272;11.070;2023-01-29T07:52:00;98869.66;;;-3.60;87.89
16030;BME280;34770;49.272;11.070;2023-01-29T07:54:25;98877.69;;;-3.41;88.42
16030;BME280;34770;49.272;11.070;2023-01-29T07:56:51;98874.38;;;-3.31;87.84
16030;BME280;34770;49.272;11.070;2023-01-29T07:59:16;98871.41;;;-3.54;87.89
16030;BME280;34770;49.272;11.070;2023-01-29T08:01:42;98876.88;;;-3.54;89.05
16030;BME280;34770;49.272;11.070;2023-01-29T08:04:07;98879.09;;;-3.39;88.70
16030;BME280;34770;49.272;11.070;2023-01-29T08:06:33;98864.88;;;-3.41;89.13
16030;BME280;34770;49.272;11.070;2023-01-29T08:08:58;98891.19;;;-3.34;88.70
16030;BME280;34770;49.272;11.070;2023-01-29T08:11:24;98884.69;;;-3.45;87.95
16030;BME280;34770;49.272;11.070;2023-01-29T08:13:49;98893.41;;;-3.31;87.67
16030;BME280;34770;49.272;11.070;2023-01-29T08:16:15;98889.88;;;-3.32;88.23
16030;BME280;34770;49.272;11.070;2023-01-29T08:18:40;98890.94;;;-3.21;88.40
16030;BME280;34770;49.272;11.070;2023-01-29T08:21:12;98904.41;;;-3.02;87.64
16030;BME280;34770;49.272;11.070;2023-01-29T08:23:37;98906.31;;;-3.03;87.30
16030;BME280;34770;49.272;11.070;2023-01-29T08:26:03;98908.44;;;-2.93;86.36
16030;BME280;34770;49.272;11.070;2023-01-29T08:28:28;98910.66;;;-2.90;86.09
16030;BME280;34770;49.272;11.070;2023-01-29T08:30:54;98903.94;;;-2.99;86.29
16030;BME280;34770;49.272;11.070;2023-01-29T08:33:20;98915.22;;;-3.19;86.84
16030;BME280;34770;49.272;11.070;2023-01-29T08:35:52;98926.22;;;-3.26;88.11
16030;BME280;34770;49.272;11.070;2023-01-29T08:38:17;98929.53;;;-3.24;87.81
16030;BME280;34770;49.272;11.070;2023-01-29T08:40:43;98918.28;;;-3.16;87.15
16030;BME280;34770;49.272;11.070;2023-01-29T08:43:11;98941.03;;;-3.22;86.31
16030;BME280;34770;49.272;11.070;2023-01-29T08:45:39;98930.13;;;-3.34;87.09
16030;BME280;34770;49.272;11.070;2023-01-29T08:48:05;98935.84;;;-3.24;87.62
16030;BME280;34770;49.272;11.070;2023-01-29T08:50:31;98929.31;;;-3.34;87.80
16030;BME280;34770;49.272;11.070;2023-01-29T08:52:59;98928.34;;;-3.05;88.47
16030;BME280;34770;49.272;11.070;2023-01-29T08:55:26;98924.91;;;-3.12;87.06
16030;BME280;34770;49.272;11.070;2023-01-29T08:57:52;98922.69;;;-3.15;86.58
16030;BME280;34770;49.272;11.070;2023-01-29T09:00:17;98930.34;;;-3.12;86.50
16030;BME280;34770;49.272;11.070;2023-01-29T09:02:43;98929.50;;;-2.89;87.58
16030;BME280;34770;49.272;11.070;2023-01-29T09:05:08;98911.72;;;-2.79;86.89
16030;BME280;34770;49.272;11.070;2023-01-29T09:07:34;98908.28;;;-2.75;85.84
16030;BME280;34770;49.272;11.070;2023-01-29T09:10:00;98941.13;;;-2.41;84.11
16030;BME280;34770;49.272;11.070;2023-01-29T09:12:26;98907.94;;;-2.90;84.58
16030;BME280;34770;49.272;11.070;2023-01-29T09:14:51;98909.06;;;-2.62;84.17
16030;BME280;34770;49.272;11.070;2023-01-29T09:17:17;98898.09;;;-2.91;84.70
16030;BME280;34770;49.272;11.070;2023-01-29T09:19:42;98895.28;;;-2.96;84.42
16030;BME280;34770;49.272;11.070;2023-01-29T09:22:08;98917.44;;;-3.05;84.89
16030;BME280;34770;49.272;11.070;2023-01-29T09:24:33;98897.28;;;-2.80;84.55
16030;BME280;34770;49.272;11.070;2023-01-29T09:26:59;98894.47;;;-2.97;84.86
16030;BME280;34770;49.272;11.070;2023-01-29T09:29:25;98913.53;;;-2.56;84.50
16030;BME280;34770;49.272;11.070;2023-01-29T09:31:50;98907.81;;;-2.43;83.68
16030;BME280;34770;49.272;11.070;2023-01-29T09:34:16;98904.00;;;-2.42;84.27
16030;BME280;34770;49.272;11.070;2023-01-29T09:36:41;98908.28;;;-2.75;84.26
16030;BME280;34770;49.272;11.070;2023-01-29T09:39:07;98909.72;;;-2.84;85.06
16030;BME280;34770;49.272;11.070;2023-01-29T09:41:53;98917.31;;;-2.86;86.20
16030;BME280;34770;49.272;11.070;2023-01-29T09:47:14;98878.00;;;-2.61;84.42
16030;BME280;34770;49.272;11.070;2023-01-29T09:49:46;98884.78;;;-2.64;84.08
16030;BME280;34770;49.272;11.070;2023-01-29T09:55:03;98898.25;;;-3.10;84.87
16030;BME280;34770;49.272;11.070;2023-01-29T09:57:46;98893.53;;;-3.02;84.15
16030;BME280;34770;49.272;11.070;2023-01-29T10:14:28;98863.03;;;-1.84;79.19
16030;BME280;34770;49.272;11.070;2023-01-29T10:24:56;98862.16;;;-0.94;72.89
16030;BME280;34770;49.272;11.070;2023-01-29T10:27:26;98861.28;;;-0.77;73.69
16030;BME280;34770;49.272;11.070;2023-01-29T10:29:55;98868.22;;;-0.92;73.45
16030;BME280;34770;49.272;11.070;2023-01-29T10:32:22;98879.22;;;-1.77;76.31
16030;BME280;34770;49.272;11.070;2023-01-29T10:35:03;98870.91;;;-1.70;78.13
16030;BME280;34770;49.272;11.070;2023-01-29T10:37:36;98859.28;;;-2.12;78.38
16030;BME280;34770;49.272;11.070;2023-01-29T10:40:31;98846.47;;;-1.77;77.98
16030;BME280;34770;49.272;11.070;2023-01-29T10:43:12;98851.31;;;-1.67;77.28
16030;BME280;34770;49.272;11.070;2023-01-29T10:45:58;98850.13;;;-1.54;78.26
16030;BME280;34770;49.272;11.070;2023-01-29T10:49:11;98857.88;;;-1.46;77.96
16030;BME280;34770;49.272;11.070;2023-01-29T10:54:48;98875.44;;;-1.59;78.46
16030;BME280;34770;49.272;11.070;2023-01-29T11:00:01;98889.34;;;-2.23;80.71
16030;BME280;34770;49.272;11.070;2023-01-29T11:02:30;98882.94;;;-2.00;80.87
16030;BME280;34770;49.272;11.070;2023-01-29T11:04:57;98870.06;;;-1.54;80.07
16030;BME280;34770;49.272;11.070;2023-01-29T11:07:23;98858.50;;;-1.22;79.63
16030;BME280;34770;49.272;11.070;2023-01-29T11:12:21;98853.66;;;-1.37;78.78
16030;BME280;34770;49.272;11.070;2023-01-29T11:17:31;98829.03;;;-1.76;79.02
16030;BME280;34770;49.272;11.070;2023-01-29T11:19:57;98811.66;;;-1.87;79.49
16030;BME280;34770;49.272;11.070;2023-01-29T11:22:27;98811.19;;;-1.84;79.58
16030;BME280;34770;49.272;11.070;2023-01-29T11:25:19;98811.59;;;-1.92;79.89
16030;BME280;34770;49.272;11.070;2023-01-29T11:27:53;98806.19;;;-1.70;79.54
16030;BME280;34770;49.272;11.070;2023-01-29T11:30:24;98802.88;;;-1.55;79.05
16030;BME280;34770;49.272;11.070;2023-01-29T11:33:09;98786.16;;;-1.58;79.03
16030;BME280;34770;49.272;11.070;2023-01-29T11:35:36;98781.75;;;-1.20;77.28
16030;BME280;34770;49.272;11.070;2023-01-29T11:38:24;98770.31;;;-1.17;77.81
16030;BME280;34770;49.272;11.070;2023-01-29T11:40:50;98778.06;;;-1.31;77.50
16030;BME280;34770;49.272;11.070;2023-01-29T11:45:52;98743.94;;;-1.51;78.14
16030;BME280;34770;49.272;11.070;2023-01-29T11:48:20;98758.03;;;-1.59;79.32
16030;BME280;34770;49.272;11.070;2023-01-29T11:50:55;98739.44;;;-1.62;78.76
16030;BME280;34770;49.272;11.070;2023-01-29T11:56:00;98726.47;;;-1.50;78.49
16030;BME280;34770;49.272;11.070;2023-01-29T11:58:32;98743.88;;;-1.34;77.98
16030;BME280;34770;49.272;11.070;2023-01-29T12:00:59;98746.25;;;-1.42;79.99
16030;BME280;34770;49.272;11.070;2023-01-29T12:03:34;98736.19;;;-1.15;79.26
16030;BME280;34770;49.272;11.070;2023-01-29T12:06:16;98725.94;;;-1.02;76.60
16030;BME280;34770;49.272;11.070;2023-01-29T12:08:42;98739.28;;;-1.06;78.41
16030;BME280;34770;49.272;11.070;2023-01-29T12:11:29;98738.69;;;-1.35;79.28
16030;BME280;34770;49.272;11.070;2023-01-29T12:14:26;98736.06;;;-1.25;79.08
16030;BME280;34770;49.272;11.070;2023-01-29T12:19:43;98736.63;;;-1.01;77.92
16030;BME280;34770;49.272;11.070;2023-01-29T12:22:22;98713.22;;;-1.19;79.47
16030;BME280;34770;49.272;11.070;2023-01-29T12:25:07;98730.00;;;-1.32;78.86
16030;BME280;34770;49.272;11.070;2023-01-29T12:27:55;98709.28;;;-1.28;79.14
16030;BME280;34770;49.272;11.070;2023-01-29T12:30:30;98707.22;;;-1.16;78.50
16030;BME280;34770;49.272;11.070;2023-01-29T12:33:29;98693.91;;;-1.34;78.86
16030;BME280;34770;49.272;11.070;2023-01-29T12:36:15;98690.41;;;-1.02;77.71
16030;BME280;34770;49.272;11.070;2023-01-29T12:38:43;98682.25;;;-0.97;77.13
16030;BME280;34770;49.272;11.070;2023-01-29T12:44:16;98682.84;;;-0.68;76.81
16030;BME280;34770;49.272;11.070;2023-01-29T12:46:48;98672.91;;;-0.41;77.31
16030;BME280;34770;49.272;11.070;2023-01-29T12:49:24;98663.78;;;-0.20;76.26
16030;BME280;34770;49.272;11.070;2023-01-29T12:52:08;98671.00;;;-0.46;75.24
16030;BME280;34770;49.272;11.070;2023-01-29T12:54:57;98665.25;;;-0.44;76.55
16030;BME280;34770;49.272;11.070;2023-01-29T13:00:23;98662.72;;;-0.13;76.39
16030;BME280;34770;49.272;11.070;2023-01-29T13:05:27;98645.84;;;-0.43;75.03
16030;BME280;34770;49.272;11.070;2023-01-29T13:08:02;98629.88;;;-0.13;74.23
16030;BME280;34770;49.272;11.070;2023-01-29T13:10:36;98654.47;;;-0.19;74.22
16030;BME280;34770;49.272;11.070;2023-01-29T13:13:09;98646.19;;;0.09;74.28
16030;BME280;34770;49.272;11.070;2023-01-29T13:15:39;98648.97;;;-0.29;74.86
16030;BME280;34770;49.272;11.070;2023-01-29T13:18:28;98649.09;;;-0.08;74.70
16030;BME280;34770;49.272;11.070;2023-01-29T13:20:58;98656.13;;;-0.23;74.26
16030;BME280;34770;49.272;11.070;2023-01-29T13:23:33;98656.44;;;-0.14;75.61
16030;BME280;34770;49.272;11.070;2023-01-29T13:25:59;98639.72;;;-0.18;75.20
16030;BME280;34770;49.272;11.070;2023-01-29T13:28:25;98659.06;;;-0.29;75.29
16030;BME280;34770;49.272;11.070;2023-01-29T13:31:11;98653.13;;;-0.16;75.08
16030;BME280;34770;49.272;11.070;2023-01-29T13:33:39;98653.97;;;-0.15;76.15
16030;BME280;34770;49.272;11.070;2023-01-29T13:36:13;98649.56;;;-0.22;75.65
16030;BME280;34770;49.272;11.070;2023-01-29T13:38:41;98652.59;;;-0.56;75.96
16030;BME280;34770;49.272;11.070;2023-01-29T13:41:09;98655.59;;;-0.52;76.51
16030;BME280;34770;49.272;11.070;2023-01-29T13:43:37;98665.16;;;-0.55;76.73
16030;BME280;34770;49.272;11.070;2023-01-29T13:46:22;98656.00;;;-0.38;77.37
16030;BME280;34770;49.272;11.070;2023-01-29T13:48:49;98642.88;;;-0.36;77.12
16030;BME280;34770;49.272;11.070;2023-01-29T13:51:20;98649.91;;;-0.45;78.86
16030;BME280;34770;49.272;11.070;2023-01-29T13:54:01;98647.22;;;-0.40;76.56
16030;BME280;34770;49.272;11.070;2023-01-29T13:56:43;98632.84;;;-0.63;77.55
16030;BME280;34770;49.272;11.070;2023-01-29T14:02:25;98640.13;;;-0.74;79.25
16030;BME280;34770;49.272;11.070;2023-01-29T14:10:22;98632.00;;;-0.26;77.54
16030;BME280;34770;49.272;11.070;2023-01-29T14:12:53;98627.13;;;-0.19;77.23
16030;BME280;34770;49.272;11.070;2023-01-29T14:15:25;98633.78;;;-0.04;76.19
16030;BME280;34770;49.272;11.070;2023-01-29T14:17:56;98630.72;;;0.45;76.04
16030;BME280;34770;49.272;11.070;2023-01-29T14:20:30;98635.47;;;0.76;73.53
16030;BME280;34770;49.272;11.070;2023-01-29T14:22:58;98635.19;;;0.62;72.02
16030;BME280;34770;49.272;11.070;2023-01-29T14:25:30;98624.78;;;0.69;72.08
16030;BME280;34770;49.272;11.070;2023-01-29T14:27:59;98595.97;;;0.51;72.45
16030;BME280;34770;49.272;11.070;2023-01-29T14:30:29;98613.88;;;0.90;72.27
16030;BME280;34770;49.272;11.070;2023-01-29T14:32:55;98612.97;;;0.69;71.80
16030;BME280;34770;49.272;11.070;2023-01-29T14:35:23;98612.75;;;0.81;71.12
16030;BME280;34770;49.272;11.070;2023-01-29T14:37:52;98607.84;;;1.03;72.22
16030;BME280;34770;49.272;11.070;2023-01-29T14:43:05;98603.69;;;0.70;72.95
16030;BME280;34770;49.272;11.070;2023-01-29T14:45:33;98617.09;;;0.66;72.08
16030;BME280;34770;49.272;11.070;2023-01-29T14:53:28;98615.50;;;1.11;69.90
16030;BME280;34770;49.272;11.070;2023-01-29T14:56:02;98568.03;;;0.70;71.13
16030;BME280;34770;49.272;11.070;2023-01-29T14:58:41;98614.97;;;0.89;72.25
16030;BME280;34770;49.272;11.070;2023-01-29T15:01:24;98612.13;;;0.63;72.60
16030;BME280;34770;49.272;11.070;2023-01-29T15:03:53;98613.44;;;0.35;73.77
16030;BME280;34770;49.272;11.070;2023-01-29T15:06:29;98602.81;;;-0.10;76.12
16030;BME280;34770;49.272;11.070;2023-01-29T15:11:39;98593.22;;;-0.12;77.96
16030;BME280;34770;49.272;11.070;2023-01-29T15:14:16;98587.22;;;-0.09;78.07